createdAt,value
2023-04-01T00:05:51.204Z,1.80
2023-04-01T00:11:17.112Z,1.70
2023-04-01T00:16:41.674Z,2.20
2023-04-01T00:22:05.777Z,1.80
2023-04-01T00:27:29.651Z,1.30
2023-04-01T00:32:55.207Z,1.20
2023-04-01T00:38:20.058Z,1.60
2023-04-01T00:43:46.222Z,1.30
2023-04-01T00:49:11.018Z,1.10
2023-04-01T00:54:36.355Z,1.70
2023-04-01T01:00:01.124Z,1.90
2023-04-01T01:05:48.350Z,1.40
2023-04-01T01:11:15.724Z,1.70
2023-04-01T01:16:46.469Z,1.60
2023-04-01T01:22:31.278Z,1.30
2023-04-01T01:28:37.289Z,1.30
2023-04-01T01:34:16.667Z,1.30
2023-04-01T01:39:45.188Z,1.30
2023-04-01T01:45:13.740Z,1.50
2023-04-01T01:50:39.070Z,1.70
2023-04-01T01:56:04.192Z,1.20
2023-04-01T02:01:36.977Z,1.70
2023-04-01T02:07:17.554Z,1.20
2023-04-01T02:12:48.126Z,1.40
2023-04-01T02:18:14.603Z,1.40
2023-04-01T02:23:39.669Z,1.70
2023-04-01T02:29:07.022Z,2.40
2023-04-01T02:34:31.053Z,1.00
2023-04-01T02:40:01.797Z,1.70
2023-04-01T02:45:27.061Z,1.30
2023-04-01T02:50:51.417Z,1.60
2023-04-01T02:56:16.212Z,1.20
2023-04-01T03:01:40.116Z,2.00
2023-04-01T03:07:04.086Z,4.00
2023-04-01T03:12:28.835Z,5.10
2023-04-01T03:17:53.619Z,5.40
2023-04-01T03:23:20.639Z,5.50
2023-04-01T03:28:44.646Z,3.20
2023-04-01T03:34:09.188Z,4.30
2023-04-01T03:39:33.509Z,4.50
2023-04-01T03:44:57.630Z,4.30
2023-04-01T03:50:22.546Z,3.90
2023-04-01T03:55:48.003Z,1.90
2023-04-01T04:01:22.181Z,1.70
2023-04-01T04:06:49.314Z,1.40
2023-04-01T04:12:14.032Z,1.10
2023-04-01T04:17:38.220Z,1.00
2023-04-01T04:23:02.832Z,0.90
2023-04-01T04:28:28.501Z,1.30
2023-04-01T04:33:54.444Z,0.80
2023-04-01T04:39:18.538Z,0.90
2023-04-01T04:44:42.879Z,1.00
2023-04-01T04:50:07.825Z,1.20
2023-04-01T04:55:34.669Z,1.10
2023-04-01T05:01:18.800Z,1.50
2023-04-01T05:06:46.060Z,1.40
2023-04-01T05:12:11.218Z,1.20
2023-04-01T05:17:55.421Z,1.20
2023-04-01T05:23:20.182Z,1.70
2023-04-01T05:28:44.710Z,1.40
2023-04-01T05:34:09.357Z,1.20
2023-04-01T05:39:33.353Z,1.20
2023-04-01T05:44:58.356Z,1.20
2023-04-01T05:50:48.423Z,1.60
2023-04-01T05:56:13.544Z,1.40
2023-04-01T06:01:40.734Z,2.10
2023-04-01T06:07:19.422Z,1.50
2023-04-01T06:12:54.699Z,1.30
2023-04-01T06:18:37.381Z,1.30
2023-04-01T06:24:38.810Z,1.40
2023-04-01T06:30:26.972Z,1.50
2023-04-01T06:36:14.457Z,1.50
2023-04-01T06:41:51.601Z,2.30
2023-04-01T06:47:31.017Z,1.30
2023-04-01T06:53:38.096Z,1.50
2023-04-01T06:59:41.863Z,1.30
2023-04-01T07:05:06.755Z,1.90
2023-04-01T07:10:47.960Z,1.90
2023-04-01T07:17:03.275Z,1.50
2023-04-01T07:22:45.924Z,1.20
2023-04-01T07:28:35.530Z,1.20
2023-04-01T07:34:51.328Z,1.50
2023-04-01T07:40:40.597Z,1.70
2023-04-01T07:46:38.948Z,2.00
2023-04-01T07:52:37.194Z,1.70
2023-04-01T07:58:18.824Z,1.60
2023-04-01T08:03:49.364Z,1.30
2023-04-01T08:09:29.112Z,1.40
2023-04-01T08:15:28.815Z,0.80
2023-04-01T08:21:03.989Z,1.10
2023-04-01T08:26:38.613Z,0.70
2023-04-01T08:32:18.366Z,1.00
2023-04-01T08:37:46.961Z,0.70
2023-04-01T08:43:38.166Z,1.00
2023-04-01T08:49:23.755Z,1.20
2023-04-01T08:55:04.595Z,0.90
2023-04-01T09:00:57.617Z,0.90
2023-04-01T09:06:39.565Z,0.50
2023-04-01T09:12:49.728Z,0.40
2023-04-01T09:18:25.362Z,0.40
2023-04-01T09:24:13.130Z,0.50
2023-04-01T09:29:49.654Z,1.00
2023-04-01T09:35:29.617Z,0.70
2023-04-01T09:41:23.376Z,0.70
2023-04-01T09:47:11.306Z,0.60
2023-04-01T09:53:05.355Z,0.40
2023-04-01T09:58:55.905Z,0.80
2023-04-01T10:04:57.596Z,0.60
2023-04-01T10:10:43.867Z,0.50
2023-04-01T10:16:27.591Z,0.50
2023-04-01T10:22:25.093Z,0.60
2023-04-01T10:28:16.500Z,0.70
2023-04-01T10:35:18.166Z,0.60
2023-04-01T10:41:57.062Z,0.70
2023-04-01T10:48:25.919Z,1.60
2023-04-01T10:54:44.442Z,0.80
2023-04-01T11:01:09.304Z,1.50
2023-04-01T11:07:44.014Z,1.10
2023-04-01T11:19:12.404Z,0.40
2023-04-01T11:25:00.997Z,0.60
2023-04-01T11:31:04.489Z,0.70
2023-04-01T11:37:01.352Z,0.30
2023-04-01T11:42:51.710Z,0.50
2023-04-01T11:48:52.221Z,0.50
2023-04-01T11:54:52.043Z,0.50
2023-04-01T12:00:47.013Z,0.30
2023-04-01T12:06:44.977Z,0.70
2023-04-01T12:12:22.340Z,0.50
2023-04-01T12:18:25.013Z,0.80
2023-04-01T12:24:35.130Z,1.20
2023-04-01T12:30:23.390Z,0.80
2023-04-01T12:35:57.367Z,0.60
2023-04-01T12:41:46.247Z,0.60
2023-04-01T12:47:34.665Z,0.70
2023-04-01T12:53:28.742Z,0.60
2023-04-01T12:59:19.317Z,0.70
2023-04-01T13:05:12.211Z,0.30
2023-04-01T13:10:59.440Z,0.40
2023-04-01T13:16:58.767Z,0.30
2023-04-01T13:22:47.192Z,0.30
2023-04-01T13:28:22.570Z,0.50
2023-04-01T13:34:01.691Z,0.10
2023-04-01T13:39:50.109Z,0.50
2023-04-01T13:45:27.865Z,0.60
2023-04-01T13:51:03.775Z,0.10
2023-04-01T13:57:20.479Z,0.30
2023-04-01T14:02:55.884Z,0.30
2023-04-01T14:08:53.269Z,0.60
2023-04-01T14:14:25.702Z,0.50
2023-04-01T14:20:11.814Z,1.30
2023-04-01T14:25:56.271Z,1.20
2023-04-01T14:31:33.063Z,1.80
2023-04-01T14:37:20.361Z,1.60
2023-04-01T14:43:17.167Z,1.50
2023-04-01T14:48:45.025Z,1.00
2023-04-01T14:54:15.291Z,1.30
2023-04-01T15:00:07.902Z,1.10
2023-04-01T15:05:53.897Z,2.50
2023-04-01T15:11:53.921Z,2.50
2023-04-01T15:17:31.400Z,2.80
2023-04-01T15:23:22.651Z,1.80
2023-04-01T15:29:05.502Z,2.10
2023-04-01T15:35:07.054Z,1.70
2023-04-01T15:40:37.701Z,1.30
2023-04-01T15:46:40.245Z,2.30
2023-04-01T15:57:53.789Z,1.40
2023-04-01T16:03:31.361Z,2.50
2023-04-01T16:09:04.140Z,2.60
2023-04-01T16:14:46.473Z,3.30
2023-04-01T16:20:11.991Z,3.50
2023-04-01T16:25:55.128Z,4.30
2023-04-01T16:31:47.801Z,12.60
2023-04-01T16:37:23.614Z,7.40
2023-04-01T16:43:07.438Z,7.20
2023-04-01T16:48:54.421Z,3.70
2023-04-01T16:54:40.651Z,2.40
2023-04-01T17:00:29.361Z,2.50
2023-04-01T17:06:29.387Z,2.20
2023-04-01T17:12:32.437Z,2.20
2023-04-01T17:23:54.611Z,2.00
2023-04-01T17:29:57.938Z,6.20
2023-04-01T17:35:36.432Z,6.20
2023-04-01T17:41:18.989Z,3.80
2023-04-01T17:46:47.292Z,2.00
2023-04-01T17:52:21.295Z,2.20
2023-04-01T17:58:00.197Z,2.30
2023-04-01T18:03:37.618Z,2.40
2023-04-01T18:09:45.593Z,1.60
2023-04-01T18:15:28.457Z,3.50
2023-04-01T18:21:20.166Z,5.30
2023-04-01T18:26:52.732Z,7.60
2023-04-01T18:32:48.303Z,5.90
2023-04-01T18:38:39.532Z,6.90
2023-04-01T18:44:35.969Z,6.60
2023-04-01T18:50:18.541Z,7.50
2023-04-01T18:55:57.216Z,7.60
2023-04-01T19:01:47.310Z,7.10
2023-04-01T19:07:29.965Z,9.10
2023-04-01T19:13:14.776Z,7.60
2023-04-01T19:19:04.299Z,7.30
2023-04-01T19:24:55.340Z,9.90
2023-04-01T19:30:48.479Z,9.80
2023-04-01T19:36:25.906Z,9.90
2023-04-01T19:42:04.884Z,7.10
2023-04-01T19:47:59.418Z,7.40
2023-04-01T19:53:37.845Z,7.10
2023-04-01T19:59:15.406Z,6.00
2023-04-01T20:04:49.762Z,5.80
2023-04-01T20:10:44.925Z,6.20
2023-04-01T20:16:12.153Z,7.30
2023-04-01T20:21:39.860Z,6.70
2023-04-01T20:27:34.777Z,6.30
2023-04-01T20:33:17.313Z,6.90
2023-04-01T20:39:12.666Z,6.80
2023-04-01T20:44:49.848Z,6.20
2023-04-01T20:50:37.637Z,7.30
2023-04-01T20:56:49.552Z,5.70
2023-04-01T21:02:31.053Z,6.40
2023-04-01T21:08:42.165Z,7.20
2023-04-01T21:14:32.926Z,6.00
2023-04-01T21:20:27.854Z,6.60
2023-04-01T21:26:24.037Z,6.00
2023-04-01T21:32:07.500Z,6.10
2023-04-01T21:37:55.871Z,5.60
2023-04-01T21:43:40.269Z,6.30
2023-04-01T21:49:31.726Z,6.20
2023-04-01T21:55:08.787Z,5.70
2023-04-01T22:00:51.015Z,6.40
2023-04-01T22:06:40.143Z,6.10
2023-04-01T22:12:42.145Z,5.40
2023-04-01T22:18:23.461Z,6.10
2023-04-01T22:24:12.976Z,5.80
2023-04-01T22:29:48.529Z,5.90
2023-04-01T22:35:45.754Z,6.30
2023-04-01T22:41:43.040Z,6.00
2023-04-01T22:47:21.604Z,6.00
2023-04-01T22:52:54.149Z,6.70
2023-04-01T22:58:35.502Z,6.10
2023-04-01T23:04:05.047Z,6.30
2023-04-01T23:09:34.641Z,6.20
2023-04-01T23:15:03.469Z,5.50
2023-04-01T23:20:52.179Z,5.50
2023-04-01T23:26:41.680Z,5.30
2023-04-01T23:32:06.024Z,4.90
2023-04-01T23:37:34.965Z,5.50
2023-04-01T23:42:59.277Z,5.40
2023-04-01T23:48:30.760Z,5.20
2023-04-01T23:54:20.428Z,5.30
2023-04-01T23:59:45.174Z,5.40
